createdAt,value
2022-07-29T00:01:44.949Z,15.20
2022-07-29T00:04:14.891Z,15.10
2022-07-29T00:06:44.110Z,15.10
2022-07-29T00:09:13.348Z,15.20
2022-07-29T00:11:42.167Z,15.20
2022-07-29T00:14:15.265Z,15.20
2022-07-29T00:16:44.443Z,15.10
2022-07-29T00:19:13.615Z,15.10
2022-07-29T00:21:42.447Z,15.00
2022-07-29T00:24:11.367Z,15.00
2022-07-29T00:26:40.238Z,15.00
2022-07-29T00:31:59.308Z,15.00
2022-07-29T00:34:45.814Z,15.00
2022-07-29T00:37:14.690Z,15.00
2022-07-29T00:39:43.471Z,14.90
2022-07-29T00:42:12.322Z,14.90
2022-07-29T00:44:41.751Z,14.90
2022-07-29T00:47:13.975Z,14.80
2022-07-29T00:49:44.494Z,14.80
2022-07-29T00:52:17.004Z,14.70
2022-07-29T00:54:46.331Z,14.70
2022-07-29T00:57:15.691Z,14.60
2022-07-29T00:59:44.602Z,14.70
2022-07-29T01:02:14.940Z,14.70
2022-07-29T01:04:44.213Z,14.60
2022-07-29T01:07:13.906Z,14.60
2022-07-29T01:09:46.204Z,14.60
2022-07-29T01:12:21.195Z,14.60
2022-07-29T01:14:52.919Z,14.50
2022-07-29T01:17:29.277Z,14.50
2022-07-29T01:20:07.164Z,14.40
2022-07-29T01:23:06.424Z,14.40
2022-07-29T01:26:05.845Z,14.40
2022-07-29T01:29:07.545Z,14.40
2022-07-29T01:31:58.592Z,14.30
2022-07-29T01:34:47.508Z,14.40
2022-07-29T01:37:23.100Z,14.30
2022-07-29T01:39:58.596Z,14.30
2022-07-29T01:42:37.522Z,14.30
2022-07-29T01:45:16.269Z,14.20
2022-07-29T01:47:55.368Z,14.20
2022-07-29T01:50:33.379Z,14.10
2022-07-29T01:53:07.553Z,14.10
2022-07-29T01:55:42.693Z,14.10
2022-07-29T01:58:14.698Z,14.10
2022-07-29T02:00:49.083Z,14.00
2022-07-29T02:03:20.864Z,14.00
2022-07-29T02:05:53.709Z,14.00
2022-07-29T02:08:24.677Z,13.90
2022-07-29T02:10:55.791Z,13.90
2022-07-29T02:13:28.330Z,14.00
2022-07-29T02:16:00.675Z,14.00
2022-07-29T02:18:33.174Z,14.00
2022-07-29T02:21:04.668Z,13.90
2022-07-29T02:23:45.307Z,13.90
2022-07-29T02:26:22.503Z,13.90
2022-07-29T02:28:54.596Z,13.90
2022-07-29T02:31:32.235Z,13.90
2022-07-29T02:34:04.115Z,13.80
2022-07-29T02:36:35.373Z,13.80
2022-07-29T02:39:06.198Z,13.90
2022-07-29T02:41:46.308Z,13.90
2022-07-29T02:44:18.294Z,13.80
2022-07-29T02:46:55.791Z,13.90
2022-07-29T02:49:37.316Z,13.80
2022-07-29T02:52:11.291Z,13.90
2022-07-29T02:54:48.259Z,14.00
2022-07-29T02:57:54.973Z,14.00
2022-07-29T03:00:29.024Z,14.00
2022-07-29T03:03:04.646Z,14.20
2022-07-29T03:05:34.745Z,14.20
2022-07-29T03:08:07.718Z,14.20
2022-07-29T03:10:39.595Z,14.20
2022-07-29T03:13:10.004Z,14.20
2022-07-29T03:15:40.700Z,14.20
2022-07-29T03:18:11.607Z,14.20
2022-07-29T03:20:41.657Z,14.20
2022-07-29T03:23:11.157Z,14.30
2022-07-29T03:25:40.070Z,14.30
2022-07-29T03:28:09.793Z,14.30
2022-07-29T03:30:38.810Z,14.30
2022-07-29T03:33:13.584Z,14.20
2022-07-29T03:35:44.388Z,14.20
2022-07-29T03:38:13.206Z,14.20
2022-07-29T03:40:50.833Z,14.20
2022-07-29T03:43:22.791Z,14.30
2022-07-29T03:45:57.452Z,14.30
2022-07-29T03:48:30.356Z,14.30
2022-07-29T03:51:00.604Z,14.30
2022-07-29T03:53:29.786Z,14.40
2022-07-29T03:56:05.035Z,14.50
2022-07-29T03:58:35.779Z,14.50
2022-07-29T04:01:05.452Z,14.50
2022-07-29T04:03:34.461Z,14.50
2022-07-29T04:06:08.302Z,14.50
2022-07-29T04:08:37.752Z,14.40
2022-07-29T04:11:07.851Z,14.40
2022-07-29T04:13:37.279Z,14.50
2022-07-29T04:16:06.917Z,14.50
2022-07-29T04:18:35.798Z,14.50
2022-07-29T04:21:07.228Z,14.60
2022-07-29T04:23:36.080Z,14.60
2022-07-29T04:26:22.658Z,14.70
2022-07-29T04:28:51.415Z,14.70
2022-07-29T04:31:25.289Z,14.80
2022-07-29T04:33:54.536Z,15.00
2022-07-29T04:36:29.267Z,15.40
2022-07-29T04:38:59.008Z,15.70
2022-07-29T04:41:33.207Z,15.60
2022-07-29T04:44:12.235Z,15.60
2022-07-29T04:46:41.241Z,15.50
2022-07-29T04:49:10.072Z,15.40
2022-07-29T04:51:52.615Z,15.60
2022-07-29T04:54:21.394Z,15.80
2022-07-29T04:56:50.247Z,15.80
2022-07-29T04:59:21.560Z,15.70
2022-07-29T05:01:50.549Z,15.60
2022-07-29T05:04:20.108Z,15.70
2022-07-29T05:06:49.872Z,15.70
2022-07-29T05:09:19.977Z,15.80
2022-07-29T05:11:48.935Z,15.80
2022-07-29T05:14:18.263Z,15.90
2022-07-29T05:16:47.355Z,16.20
2022-07-29T05:19:16.261Z,16.50
2022-07-29T05:21:46.426Z,17.00
2022-07-29T05:24:15.662Z,17.40
2022-07-29T05:26:46.578Z,17.50
2022-07-29T05:29:43.841Z,17.40
2022-07-29T05:32:04.300Z,17.60
2022-07-29T05:34:33.260Z,17.40
2022-07-29T05:37:02.113Z,17.40
2022-07-29T05:39:47.076Z,17.20
2022-07-29T05:42:19.352Z,17.10
2022-07-29T05:44:48.490Z,17.00
2022-07-29T05:47:17.183Z,16.90
2022-07-29T05:49:47.190Z,16.90
2022-07-29T05:52:16.260Z,16.90
2022-07-29T05:54:45.187Z,16.80
2022-07-29T05:57:20.124Z,16.90
2022-07-29T05:59:49.274Z,17.00
2022-07-29T06:02:21.260Z,17.00
2022-07-29T06:04:50.533Z,17.20
2022-07-29T06:07:19.371Z,17.20
2022-07-29T06:09:48.087Z,17.40
2022-07-29T06:12:18.239Z,17.50
2022-07-29T06:14:49.852Z,17.60
2022-07-29T06:17:20.826Z,17.70
2022-07-29T06:19:49.662Z,18.00
2022-07-29T06:22:18.714Z,18.20
2022-07-29T06:24:47.713Z,18.50
2022-07-29T06:27:17.312Z,18.70
2022-07-29T06:29:47.577Z,19.00
2022-07-29T06:32:16.686Z,19.00
2022-07-29T06:34:46.291Z,18.90
2022-07-29T06:37:18.866Z,18.90
2022-07-29T06:39:48.941Z,18.90
2022-07-29T06:42:17.930Z,19.00
2022-07-29T06:44:48.508Z,19.10
2022-07-29T06:47:17.387Z,19.20
2022-07-29T06:49:46.452Z,19.20
2022-07-29T06:52:15.330Z,19.20
2022-07-29T06:54:48.988Z,19.20
2022-07-29T06:57:17.904Z,19.20
2022-07-29T06:59:48.633Z,19.40
2022-07-29T07:02:17.714Z,19.40
2022-07-29T07:04:46.448Z,19.40
2022-07-29T07:07:18.205Z,19.50
2022-07-29T07:09:46.944Z,19.70
2022-07-29T07:12:15.790Z,19.80
2022-07-29T07:14:44.507Z,19.90
2022-07-29T07:17:14.721Z,20.00
2022-07-29T07:19:43.578Z,20.30
2022-07-29T07:22:12.408Z,20.60
2022-07-29T07:24:41.392Z,20.90
2022-07-29T07:27:10.162Z,21.10
2022-07-29T07:29:42.133Z,21.00
2022-07-29T07:32:17.326Z,21.00
2022-07-29T07:34:46.370Z,21.20
2022-07-29T07:37:15.658Z,21.20
2022-07-29T07:39:44.684Z,21.30
2022-07-29T07:42:14.298Z,21.50
2022-07-29T07:45:11.077Z,21.50
2022-07-29T07:47:34.230Z,21.80
2022-07-29T07:50:03.325Z,22.10
2022-07-29T07:52:32.084Z,22.20
2022-07-29T07:55:02.298Z,22.30
2022-07-29T07:57:31.488Z,22.30
2022-07-29T08:00:00.291Z,22.30
2022-07-29T08:02:29.308Z,22.30
2022-07-29T08:05:00.613Z,22.40
2022-07-29T08:07:30.345Z,22.60
2022-07-29T08:09:59.151Z,22.90
2022-07-29T08:12:27.886Z,23.10
2022-07-29T08:14:56.755Z,23.30
2022-07-29T08:17:25.502Z,23.50
2022-07-29T08:19:54.366Z,23.50
2022-07-29T08:22:24.603Z,23.50
2022-07-29T08:24:57.195Z,23.40
2022-07-29T08:27:43.128Z,23.40
2022-07-29T08:30:13.801Z,23.50
2022-07-29T08:32:58.151Z,23.50
2022-07-29T08:35:30.931Z,23.50
2022-07-29T08:38:04.539Z,23.60
2022-07-29T08:40:33.409Z,23.80
2022-07-29T08:43:08.231Z,24.00
2022-07-29T08:45:48.049Z,24.40
2022-07-29T08:48:19.456Z,24.50
2022-07-29T08:50:51.020Z,24.70
2022-07-29T08:53:21.512Z,24.70
2022-07-29T08:55:52.023Z,24.70
2022-07-29T08:58:24.957Z,24.70
2022-07-29T09:00:56.468Z,24.60
2022-07-29T09:03:32.620Z,24.60
2022-07-29T09:06:02.403Z,24.70
2022-07-29T09:08:34.806Z,24.60
2022-07-29T09:11:05.303Z,24.60
2022-07-29T09:13:34.662Z,24.60
2022-07-29T09:16:09.322Z,24.70
2022-07-29T09:18:40.994Z,24.70
2022-07-29T09:21:29.988Z,24.80
2022-07-29T09:24:12.103Z,25.10
2022-07-29T09:26:44.518Z,25.40
2022-07-29T09:29:16.520Z,25.50
2022-07-29T09:31:47.948Z,25.70
2022-07-29T09:34:20.052Z,25.80
2022-07-29T09:36:52.479Z,25.70
2022-07-29T09:39:34.683Z,25.50
2022-07-29T09:42:06.932Z,25.40
2022-07-29T09:44:49.210Z,25.30
2022-07-29T09:47:19.581Z,25.30
2022-07-29T09:50:00.487Z,25.40
2022-07-29T09:52:31.362Z,25.40
2022-07-29T09:55:17.873Z,25.50
2022-07-29T09:57:47.847Z,25.50
2022-07-29T10:00:20.166Z,25.60
2022-07-29T10:02:50.183Z,25.60
2022-07-29T10:05:22.771Z,25.40
2022-07-29T10:07:57.284Z,25.50
2022-07-29T10:10:30.452Z,25.80
2022-07-29T10:13:07.179Z,25.70
2022-07-29T10:15:42.037Z,25.90
2022-07-29T10:18:12.297Z,26.10
2022-07-29T10:20:42.260Z,26.10
2022-07-29T10:23:12.262Z,26.20
2022-07-29T10:25:46.167Z,26.30
2022-07-29T10:28:16.736Z,26.40
2022-07-29T10:30:49.091Z,26.20
2022-07-29T10:33:38.850Z,26.10
2022-07-29T10:36:41.175Z,26.10
2022-07-29T10:39:34.396Z,26.10
2022-07-29T10:42:29.602Z,26.00
2022-07-29T10:45:04.355Z,26.30
2022-07-29T10:47:35.139Z,26.30
2022-07-29T10:50:07.270Z,26.20
2022-07-29T10:52:57.647Z,26.30
2022-07-29T10:55:39.382Z,26.40
2022-07-29T10:58:23.531Z,26.50
2022-07-29T11:00:54.716Z,26.50
2022-07-29T11:03:52.203Z,26.80
2022-07-29T11:06:26.585Z,27.00
2022-07-29T11:09:25.869Z,27.10
2022-07-29T11:12:45.530Z,27.20
2022-07-29T11:15:20.094Z,27.10
2022-07-29T11:18:15.055Z,27.20
2022-07-29T11:20:49.887Z,27.20
2022-07-29T11:23:33.807Z,26.90
2022-07-29T11:26:24.840Z,26.70
2022-07-29T11:29:03.134Z,26.70
2022-07-29T11:31:42.484Z,27.10
2022-07-29T11:34:28.196Z,27.40
2022-07-29T11:40:18.614Z,27.80
2022-07-29T11:42:55.126Z,27.80
2022-07-29T11:45:48.839Z,27.80
2022-07-29T11:48:28.641Z,27.50
2022-07-29T11:50:59.639Z,27.40
2022-07-29T11:56:25.738Z,28.00
2022-07-29T11:59:08.373Z,28.20
2022-07-29T12:01:37.406Z,28.00
2022-07-29T12:04:08.820Z,27.70
2022-07-29T12:06:37.855Z,27.50
2022-07-29T12:07:01.663Z,27.50
2022-07-29T12:09:11.250Z,27.50
2022-07-29T12:11:47.390Z,27.60
2022-07-29T12:14:29.936Z,27.80
2022-07-29T12:16:59.845Z,27.90
2022-07-29T12:19:29.950Z,27.90
2022-07-29T12:22:01.154Z,27.80
2022-07-29T12:24:45.752Z,27.60
2022-07-29T12:27:29.314Z,27.70
2022-07-29T12:30:00.699Z,27.90
2022-07-29T12:32:35.910Z,28.10
2022-07-29T12:35:10.306Z,28.10
2022-07-29T12:37:42.610Z,27.90
2022-07-29T12:40:14.950Z,27.80
2022-07-29T12:42:43.755Z,27.80
2022-07-29T12:45:12.973Z,27.90
2022-07-29T12:47:54.711Z,27.80
2022-07-29T12:50:26.667Z,27.90
2022-07-29T12:52:55.542Z,28.00
2022-07-29T12:55:49.858Z,28.40
2022-07-29T12:58:30.472Z,28.30
2022-07-29T13:01:17.421Z,28.40
2022-07-29T13:03:57.762Z,28.40
2022-07-29T13:06:51.157Z,28.50
2022-07-29T13:09:23.498Z,28.40
2022-07-29T13:11:54.965Z,28.00
2022-07-29T13:14:34.798Z,27.90
2022-07-29T13:17:07.758Z,27.80
2022-07-29T13:19:40.486Z,27.50
2022-07-29T13:22:11.753Z,27.70
2022-07-29T13:24:52.697Z,27.80
2022-07-29T13:27:24.425Z,28.10
2022-07-29T13:29:53.927Z,28.10
2022-07-29T13:32:27.909Z,28.20
2022-07-29T13:34:59.253Z,28.00
2022-07-29T13:37:30.906Z,27.80
2022-07-29T13:40:00.337Z,27.80
2022-07-29T13:42:29.571Z,28.10
2022-07-29T13:44:58.381Z,28.20
2022-07-29T13:47:32.817Z,28.10
2022-07-29T13:50:02.484Z,28.10
2022-07-29T13:52:32.773Z,28.30
2022-07-29T13:55:02.197Z,28.40
2022-07-29T13:57:31.762Z,28.50
2022-07-29T14:00:00.849Z,28.30
2022-07-29T14:02:29.736Z,28.20
2022-07-29T14:04:58.793Z,28.10
2022-07-29T14:07:27.579Z,28.10
2022-07-29T14:09:57.881Z,27.90
2022-07-29T14:12:26.639Z,27.90
2022-07-29T14:14:55.298Z,27.80
2022-07-29T14:17:24.373Z,27.70
2022-07-29T14:19:53.131Z,27.70
2022-07-29T14:22:25.463Z,27.90
2022-07-29T14:24:54.675Z,27.90
2022-07-29T14:27:37.607Z,28.20
2022-07-29T14:30:09.485Z,28.60
2022-07-29T14:32:38.099Z,29.00
2022-07-29T14:35:08.916Z,29.30
2022-07-29T14:37:40.364Z,29.20
2022-07-29T14:40:11.380Z,29.40
2022-07-29T14:42:42.335Z,29.50
2022-07-29T14:45:12.081Z,29.50
2022-07-29T14:47:41.149Z,29.50
2022-07-29T14:50:11.314Z,29.80
2022-07-29T14:52:40.473Z,29.70
2022-07-29T14:55:19.924Z,29.50
2022-07-29T14:57:51.211Z,29.40
2022-07-29T15:00:20.391Z,29.10
2022-07-29T15:03:04.493Z,29.00
2022-07-29T15:05:34.109Z,28.70
2022-07-29T15:08:03.422Z,28.40
2022-07-29T15:10:33.388Z,28.20
2022-07-29T15:13:03.548Z,28.30
2022-07-29T15:15:32.312Z,28.50
2022-07-29T15:18:01.018Z,28.80
2022-07-29T15:20:29.754Z,29.00
2022-07-29T15:22:59.361Z,28.90
2022-07-29T15:25:28.598Z,29.10
2022-07-29T15:28:01.166Z,28.90
2022-07-29T15:30:34.440Z,28.60
2022-07-29T15:33:05.075Z,28.50
2022-07-29T15:35:40.330Z,28.20
2022-07-29T15:38:10.476Z,28.00
2022-07-29T15:40:42.251Z,27.90
2022-07-29T15:43:11.287Z,27.90
2022-07-29T15:46:03.823Z,27.80
2022-07-29T15:48:32.616Z,27.80
2022-07-29T15:51:01.614Z,27.80
2022-07-29T15:53:30.339Z,27.90
2022-07-29T15:55:59.094Z,28.00
2022-07-29T15:58:27.884Z,28.00
2022-07-29T16:00:58.258Z,28.00
2022-07-29T16:03:27.209Z,28.00
2022-07-29T16:05:56.135Z,27.90
2022-07-29T16:08:25.032Z,27.70
2022-07-29T16:10:54.095Z,27.40
2022-07-29T16:13:24.460Z,27.30
2022-07-29T16:16:02.129Z,27.30
2022-07-29T16:18:33.013Z,27.40
2022-07-29T16:21:01.734Z,27.50
2022-07-29T16:23:30.469Z,27.50
2022-07-29T16:26:00.737Z,27.70
2022-07-29T16:28:30.366Z,27.80
2022-07-29T16:30:59.799Z,27.90
2022-07-29T16:33:28.871Z,28.20
2022-07-29T16:36:25.749Z,28.30
2022-07-29T16:38:55.070Z,28.50
2022-07-29T16:41:24.140Z,28.20
2022-07-29T16:43:53.142Z,28.00
2022-07-29T16:46:21.917Z,28.00
2022-07-29T16:48:53.615Z,27.90
2022-07-29T16:51:24.419Z,27.70
2022-07-29T16:53:53.203Z,27.80
2022-07-29T16:56:22.081Z,27.80
2022-07-29T16:58:50.857Z,27.90
2022-07-29T17:01:19.948Z,28.10
2022-07-29T17:04:07.394Z,28.00
2022-07-29T17:06:39.837Z,28.00
2022-07-29T17:09:11.439Z,28.00
2022-07-29T17:11:53.960Z,28.00
2022-07-29T17:14:25.632Z,28.10
2022-07-29T17:17:01.073Z,28.40
2022-07-29T17:19:33.842Z,28.70
2022-07-29T17:22:15.645Z,28.90
2022-07-29T17:24:48.406Z,29.00
2022-07-29T17:27:18.085Z,28.80
2022-07-29T17:29:46.963Z,28.20
2022-07-29T17:32:15.773Z,27.90
2022-07-29T17:34:45.115Z,27.50
2022-07-29T17:37:15.249Z,27.30
2022-07-29T17:39:44.793Z,27.10
2022-07-29T17:42:15.541Z,26.80
2022-07-29T17:44:45.580Z,26.70
2022-07-29T17:47:15.662Z,26.60
2022-07-29T17:49:45.738Z,26.80
2022-07-29T17:52:18.041Z,26.90
2022-07-29T17:54:48.686Z,26.80
2022-07-29T17:57:17.472Z,26.60
2022-07-29T17:59:46.213Z,26.40
2022-07-29T18:02:15.111Z,26.30
2022-07-29T18:04:43.994Z,26.10
2022-07-29T18:07:12.848Z,25.90
2022-07-29T18:09:43.003Z,25.80
2022-07-29T18:12:12.120Z,25.70
2022-07-29T18:14:41.105Z,25.60
2022-07-29T18:17:09.949Z,25.60
2022-07-29T18:19:38.805Z,25.40
2022-07-29T18:22:09.864Z,25.30
2022-07-29T18:24:39.386Z,25.20
2022-07-29T18:27:09.632Z,25.20
2022-07-29T18:29:38.876Z,25.10
2022-07-29T18:32:09.325Z,25.00
2022-07-29T18:34:38.279Z,25.00
2022-07-29T18:37:07.900Z,24.90
2022-07-29T18:39:36.714Z,24.80
2022-07-29T18:42:13.905Z,24.80
2022-07-29T18:44:43.869Z,24.70
2022-07-29T18:47:18.141Z,24.70
2022-07-29T18:49:47.059Z,24.50
2022-07-29T18:52:18.171Z,24.50
2022-07-29T18:54:46.940Z,24.40
2022-07-29T18:57:54.805Z,24.30
2022-07-29T19:00:09.681Z,24.20
2022-07-29T19:02:41.846Z,24.10
2022-07-29T19:05:12.457Z,24.00
2022-07-29T19:07:41.398Z,23.90
2022-07-29T19:10:11.891Z,23.80
2022-07-29T19:12:43.148Z,23.80
2022-07-29T19:15:13.061Z,23.70
2022-07-29T19:17:49.550Z,23.60
2022-07-29T19:20:18.345Z,23.50
2022-07-29T19:22:47.700Z,23.50
2022-07-29T19:25:16.456Z,23.50
2022-07-29T19:27:50.199Z,23.40
2022-07-29T19:30:19.154Z,23.40
2022-07-29T19:32:47.929Z,23.30
2022-07-29T19:35:31.317Z,23.30
2022-07-29T19:38:03.309Z,23.10
2022-07-29T19:40:35.377Z,23.00
2022-07-29T19:43:52.242Z,23.00
2022-07-29T19:45:56.365Z,22.90
2022-07-29T19:48:30.516Z,22.90
2022-07-29T19:50:59.292Z,22.90
2022-07-29T19:53:28.105Z,22.80
2022-07-29T19:55:56.962Z,22.70
2022-07-29T19:58:27.211Z,22.70
2022-07-29T20:00:57.228Z,22.60
2022-07-29T20:03:26.022Z,22.60
2022-07-29T20:05:54.927Z,22.60
2022-07-29T20:08:27.029Z,22.50
2022-07-29T20:10:56.250Z,22.40
2022-07-29T20:13:38.058Z,22.40
2022-07-29T20:16:08.388Z,22.30
2022-07-29T20:18:37.372Z,22.20
2022-07-29T20:21:06.391Z,22.20
2022-07-29T20:23:35.345Z,22.10
2022-07-29T20:26:09.306Z,22.10
2022-07-29T20:28:40.359Z,22.00
2022-07-29T20:31:12.474Z,22.00
2022-07-29T20:33:41.341Z,21.90
2022-07-29T20:36:10.291Z,21.90
2022-07-29T20:38:39.029Z,21.80
2022-07-29T20:41:08.000Z,21.80
2022-07-29T20:43:38.912Z,21.80
2022-07-29T20:46:08.320Z,21.70
2022-07-29T20:48:37.244Z,21.60
2022-07-29T20:51:06.492Z,21.60
2022-07-29T20:53:35.800Z,21.60
2022-07-29T20:56:04.796Z,21.50
2022-07-29T20:58:34.342Z,21.50
2022-07-29T21:01:05.127Z,21.40
2022-07-29T21:03:34.326Z,21.40
2022-07-29T21:06:03.682Z,21.40
2022-07-29T21:08:32.597Z,21.40
2022-07-29T21:11:01.530Z,21.40
2022-07-29T21:13:31.446Z,21.40
2022-07-29T21:16:03.482Z,21.40
2022-07-29T21:18:37.622Z,21.40
2022-07-29T21:21:07.118Z,21.40
2022-07-29T21:23:36.623Z,21.40
2022-07-29T21:26:11.085Z,21.40
2022-07-29T21:28:40.818Z,21.40
2022-07-29T21:31:12.628Z,21.40
2022-07-29T21:33:45.812Z,21.40
2022-07-29T21:36:46.741Z,21.50
2022-07-29T21:39:08.145Z,21.50
2022-07-29T21:41:37.204Z,21.50
2022-07-29T21:44:06.247Z,21.50
2022-07-29T21:46:36.613Z,21.50
2022-07-29T21:49:07.156Z,21.50
2022-07-29T21:51:37.885Z,21.40
2022-07-29T21:54:07.548Z,21.40
2022-07-29T21:56:37.352Z,21.40
2022-07-29T21:59:06.215Z,21.40
2022-07-29T22:01:39.695Z,21.40
2022-07-29T22:04:10.625Z,21.30
2022-07-29T22:06:39.584Z,21.30
2022-07-29T22:09:08.636Z,21.30
2022-07-29T22:11:37.794Z,21.30
2022-07-29T22:14:07.587Z,21.30
2022-07-29T22:16:36.678Z,21.20
2022-07-29T22:19:05.640Z,21.20
2022-07-29T22:21:35.854Z,21.20
2022-07-29T22:24:05.636Z,21.10
2022-07-29T22:26:34.848Z,21.00
2022-07-29T22:29:03.925Z,21.00
2022-07-29T22:31:32.829Z,21.00
2022-07-29T22:34:01.642Z,21.00
2022-07-29T22:36:30.407Z,21.00
2022-07-29T22:39:00.706Z,21.00
2022-07-29T22:41:29.550Z,20.90
2022-07-29T22:43:58.420Z,21.00
2022-07-29T22:46:27.301Z,20.90
2022-07-29T22:48:57.575Z,21.00
2022-07-29T22:51:26.544Z,20.90
2022-07-29T22:53:55.363Z,20.80
2022-07-29T22:56:25.946Z,20.80
2022-07-29T22:58:55.872Z,20.90
2022-07-29T23:01:37.133Z,20.90
2022-07-29T23:04:07.430Z,20.80
2022-07-29T23:06:36.395Z,20.80
2022-07-29T23:09:05.519Z,20.80
2022-07-29T23:11:35.831Z,20.80
2022-07-29T23:14:04.619Z,20.80
2022-07-29T23:16:38.391Z,20.80
2022-07-29T23:19:07.156Z,20.80
2022-07-29T23:21:36.028Z,20.80
2022-07-29T23:24:05.050Z,20.80
2022-07-29T23:26:36.873Z,20.70
2022-07-29T23:29:05.679Z,20.60
2022-07-29T23:31:34.874Z,20.60
2022-07-29T23:34:10.810Z,20.60
2022-07-29T23:36:39.600Z,20.60
2022-07-29T23:39:11.266Z,20.50
2022-07-29T23:41:41.548Z,20.50
2022-07-29T23:44:10.290Z,20.40
2022-07-29T23:46:39.172Z,20.40
2022-07-29T23:49:08.047Z,20.40
2022-07-29T23:51:36.862Z,20.30
2022-07-29T23:54:05.798Z,20.30
2022-07-29T23:56:34.500Z,20.20
2022-07-29T23:59:05.905Z,20.20
